createdAt,value
2023-11-25T00:01:03.744Z,97955.50
2023-11-25T00:03:31.559Z,97956.13
2023-11-25T00:05:58.858Z,97960.72
2023-11-25T00:08:28.143Z,97963.91
2023-11-25T00:10:57.122Z,97965.09
2023-11-25T00:13:25.858Z,97961.53
2023-11-25T00:15:56.003Z,97962.28
2023-11-25T00:18:23.971Z,97958.91
2023-11-25T00:20:51.273Z,97970.16
2023-11-25T00:23:19.218Z,97977.38
2023-11-25T00:25:47.061Z,97976.63
2023-11-25T00:28:18.734Z,97986.34
2023-11-25T00:30:46.557Z,97998.91
2023-11-25T00:33:14.446Z,97992.47
2023-11-25T00:35:42.265Z,97992.91
2023-11-25T00:38:09.821Z,97999.97
2023-11-25T00:40:37.213Z,98007.28
2023-11-25T00:43:05.070Z,98013.16
2023-11-25T00:45:35.428Z,98026.41
2023-11-25T00:48:03.917Z,98018.94
2023-11-25T00:50:31.147Z,98021.72
2023-11-25T00:52:59.245Z,98025.16
2023-11-25T00:55:27.960Z,98032.41
2023-11-25T00:57:56.212Z,98047.47
2023-11-25T01:00:26.991Z,98049.56
2023-11-25T01:02:56.374Z,98050.78
2023-11-25T01:05:24.246Z,98050.03
2023-11-25T01:07:53.120Z,98053.19
2023-11-25T01:10:20.940Z,98058.94
2023-11-25T01:12:48.800Z,98063.28
2023-11-25T01:15:16.505Z,98069.78
2023-11-25T01:17:43.730Z,98080.63
2023-11-25T01:20:12.066Z,98071.34
2023-11-25T01:22:40.919Z,98076.75
2023-11-25T01:25:09.104Z,98082.66
2023-11-25T01:27:37.200Z,98099.28
2023-11-25T01:30:06.502Z,98096.97
2023-11-25T01:32:34.135Z,98110.31
2023-11-25T01:35:02.023Z,98100.81
2023-11-25T01:37:31.218Z,98112.59
2023-11-25T01:39:59.443Z,98115.28
2023-11-25T01:42:26.638Z,98126.84
2023-11-25T01:44:54.264Z,98127.25
2023-11-25T01:47:22.150Z,98131.56
2023-11-25T01:49:50.961Z,98126.13
2023-11-25T01:52:23.620Z,98132.41
2023-11-25T01:54:57.810Z,98123.47
2023-11-25T01:57:26.492Z,98132.44
2023-11-25T01:59:54.102Z,98152.44
2023-11-25T02:02:29.984Z,98149.47
2023-11-25T02:05:00.381Z,98143.56
2023-11-25T02:07:28.411Z,98158.16
2023-11-25T02:09:56.499Z,98155.97
2023-11-25T02:12:25.160Z,98166.84
2023-11-25T02:14:52.882Z,98170.69
2023-11-25T02:17:22.288Z,98188.03
2023-11-25T02:19:49.509Z,98187.34
2023-11-25T02:22:17.243Z,98188.63
2023-11-25T02:24:44.528Z,98193.31
2023-11-25T02:27:13.406Z,98192.31
2023-11-25T02:29:41.143Z,98198.81
2023-11-25T02:32:08.616Z,98199.75
2023-11-25T02:34:36.125Z,98197.34
2023-11-25T02:37:04.070Z,98195.22
2023-11-25T02:39:31.847Z,98204.94
2023-11-25T02:41:59.431Z,98202.31
2023-11-25T02:44:28.570Z,98204.63
2023-11-25T02:46:56.188Z,98203.19
2023-11-25T02:49:23.720Z,98204.22
2023-11-25T02:51:56.859Z,98210.03
2023-11-25T02:54:25.863Z,98226.13
2023-11-25T02:56:53.676Z,98227.47
2023-11-25T02:59:21.058Z,98236.19
2023-11-25T03:01:53.483Z,98239.78
2023-11-25T03:04:24.606Z,98253.19
2023-11-25T03:06:53.027Z,98253.41
2023-11-25T03:09:21.225Z,98255.56
2023-11-25T03:11:49.167Z,98262.72
2023-11-25T03:14:17.561Z,98267.47
2023-11-25T03:16:45.307Z,98262.78
2023-11-25T03:19:14.307Z,98266.66
2023-11-25T03:21:44.328Z,98282.19
2023-11-25T03:24:11.681Z,98279.81
2023-11-25T03:26:39.806Z,98285.25
2023-11-25T03:29:07.467Z,98291.22
2023-11-25T03:31:35.075Z,98291.75
2023-11-25T03:34:02.798Z,98298.09
2023-11-25T03:36:30.245Z,98301.00
2023-11-25T03:38:57.625Z,98303.00
2023-11-25T03:41:24.767Z,98297.66
2023-11-25T03:43:51.939Z,98291.53
2023-11-25T03:46:19.904Z,98293.59
2023-11-25T03:48:48.504Z,98293.13
2023-11-25T03:51:16.508Z,98303.16
2023-11-25T03:53:44.188Z,98291.94
2023-11-25T03:56:14.883Z,98295.44
2023-11-25T03:58:42.804Z,98293.13
2023-11-25T04:01:10.416Z,98306.25
2023-11-25T04:03:38.017Z,98298.00
2023-11-25T04:06:06.215Z,98301.91
2023-11-25T04:08:33.706Z,98298.66
2023-11-25T04:11:02.198Z,98296.59
2023-11-25T04:13:30.026Z,98309.94
2023-11-25T04:15:57.624Z,98315.41
2023-11-25T04:18:25.763Z,98312.25
2023-11-25T04:20:54.010Z,98310.69
2023-11-25T04:23:23.567Z,98314.53
2023-11-25T04:25:50.931Z,98329.31
2023-11-25T04:28:22.107Z,98320.03
2023-11-25T04:30:49.738Z,98327.94
2023-11-25T04:33:16.903Z,98344.28
2023-11-25T04:35:44.204Z,98343.00
2023-11-25T04:38:11.646Z,98343.81
2023-11-25T04:40:38.989Z,98352.19
2023-11-25T04:43:06.700Z,98359.38
2023-11-25T04:45:36.036Z,98363.25
2023-11-25T04:48:04.794Z,98359.00
2023-11-25T04:50:32.148Z,98371.91
2023-11-25T04:53:00.999Z,98368.91
2023-11-25T04:55:29.533Z,98363.09
2023-11-25T04:57:57.610Z,98371.97
2023-11-25T05:00:25.305Z,98377.66
2023-11-25T05:02:52.841Z,98374.66
2023-11-25T05:05:20.356Z,98372.31
2023-11-25T05:07:50.953Z,98365.44
2023-11-25T05:10:20.749Z,98370.72
2023-11-25T05:12:52.061Z,98370.22
2023-11-25T05:15:19.680Z,98374.06
2023-11-25T05:17:47.689Z,98371.69
2023-11-25T05:20:17.547Z,98367.75
2023-11-25T05:22:46.332Z,98370.91
2023-11-25T05:25:17.023Z,98378.06
2023-11-25T05:27:45.200Z,98375.69
2023-11-25T05:30:14.321Z,98381.91
2023-11-25T05:32:45.991Z,98372.91
2023-11-25T05:35:14.953Z,98378.47
2023-11-25T05:37:45.620Z,98375.72
2023-11-25T05:40:16.666Z,98375.19
2023-11-25T05:42:50.130Z,98381.06
2023-11-25T05:45:19.477Z,98388.38
2023-11-25T05:47:48.632Z,98393.47
2023-11-25T05:50:22.454Z,98399.16
2023-11-25T05:52:52.366Z,98406.28
2023-11-25T05:55:21.058Z,98409.38
2023-11-25T05:57:52.678Z,98413.84
2023-11-25T06:00:22.466Z,98422.63
2023-11-25T06:02:50.373Z,98420.03
2023-11-25T06:05:17.784Z,98407.03
2023-11-25T06:07:51.222Z,98414.78
2023-11-25T06:10:20.155Z,98423.53
2023-11-25T06:12:48.000Z,98414.84
2023-11-25T06:15:16.745Z,98419.66
2023-11-25T06:17:46.386Z,98424.59
2023-11-25T06:20:14.136Z,98420.34
2023-11-25T06:22:42.366Z,98417.34
2023-11-25T06:25:09.886Z,98422.34
2023-11-25T06:27:37.048Z,98411.78
2023-11-25T06:30:05.791Z,98420.47
2023-11-25T06:32:34.292Z,98424.31
2023-11-25T06:35:01.763Z,98418.16
2023-11-25T06:37:29.149Z,98414.25
2023-11-25T06:39:56.369Z,98414.00
2023-11-25T06:42:31.546Z,98412.38
2023-11-25T06:45:02.640Z,98415.34
2023-11-25T06:47:30.055Z,98415.75
2023-11-25T06:49:57.377Z,98424.94
2023-11-25T06:52:24.816Z,98422.41
2023-11-25T06:54:57.926Z,98429.63
2023-11-25T06:57:25.734Z,98420.28
2023-11-25T06:59:53.075Z,98425.41
2023-11-25T07:02:20.331Z,98422.25
2023-11-25T07:04:47.806Z,98427.59
2023-11-25T07:07:15.381Z,98423.09
2023-11-25T07:09:43.010Z,98436.19
2023-11-25T07:12:11.368Z,98427.41
2023-11-25T07:14:38.632Z,98432.06
2023-11-25T07:17:05.899Z,98432.97
2023-11-25T07:19:33.255Z,98428.06
2023-11-25T07:22:00.518Z,98441.72
2023-11-25T07:24:29.524Z,98436.34
2023-11-25T07:27:03.085Z,98435.75
2023-11-25T07:29:32.661Z,98434.84
2023-11-25T07:32:01.666Z,98443.72
2023-11-25T07:34:33.089Z,98442.63
2023-11-25T07:37:00.650Z,98444.19
2023-11-25T07:39:31.162Z,98448.75
2023-11-25T07:41:59.420Z,98440.53
2023-11-25T07:44:33.034Z,98431.00
2023-11-25T07:47:03.093Z,98438.91
2023-11-25T07:49:31.421Z,98449.09
2023-11-25T07:51:59.685Z,98449.09
2023-11-25T07:54:27.290Z,98450.50
2023-11-25T07:56:55.327Z,98445.19
2023-11-25T07:59:22.972Z,98444.31
2023-11-25T08:01:50.485Z,98447.66
2023-11-25T08:04:18.166Z,98460.91
2023-11-25T08:06:45.461Z,98451.25
2023-11-25T08:09:13.417Z,98459.75
2023-11-25T08:11:40.889Z,98456.50
2023-11-25T08:14:08.241Z,98455.84
2023-11-25T08:16:35.649Z,98464.16
2023-11-25T08:19:03.043Z,98466.13
2023-11-25T08:21:30.271Z,98468.56
2023-11-25T08:23:57.900Z,98466.78
2023-11-25T08:26:31.036Z,98466.00
2023-11-25T08:29:00.428Z,98460.38
2023-11-25T08:31:28.093Z,98453.97
2023-11-25T08:33:55.367Z,98465.22
2023-11-25T08:36:22.616Z,98458.63
2023-11-25T08:38:52.617Z,98462.75
2023-11-25T08:41:20.486Z,98459.75
2023-11-25T08:43:49.004Z,98459.00
2023-11-25T08:46:21.165Z,98460.69
2023-11-25T08:48:48.771Z,98463.22
2023-11-25T08:51:16.166Z,98462.97
2023-11-25T08:53:46.069Z,98470.19
2023-11-25T08:56:14.524Z,98452.28
2023-11-25T08:58:42.344Z,98455.06
2023-11-25T09:01:10.073Z,98459.97
2023-11-25T09:03:37.962Z,98458.81
2023-11-25T09:06:06.236Z,98460.13
2023-11-25T09:08:33.757Z,98458.66
2023-11-25T09:11:02.264Z,98454.03
2023-11-25T09:13:32.959Z,98453.97
2023-11-25T09:16:00.950Z,98457.22
2023-11-25T09:18:28.301Z,98459.66
2023-11-25T09:20:55.496Z,98452.72
2023-11-25T09:23:22.843Z,98444.31
2023-11-25T09:25:50.137Z,98453.44
2023-11-25T09:28:22.431Z,98451.34
2023-11-25T09:30:49.947Z,98446.81
2023-11-25T09:33:17.086Z,98445.72
2023-11-25T09:35:44.239Z,98442.97
2023-11-25T09:38:11.559Z,98442.56
2023-11-25T09:40:40.303Z,98444.78
2023-11-25T09:43:08.692Z,98447.09
2023-11-25T09:45:36.853Z,98450.13
2023-11-25T09:48:04.592Z,98442.91
2023-11-25T09:50:32.214Z,98443.41
2023-11-25T09:53:08.452Z,98438.44
2023-11-25T09:55:41.742Z,98429.25
2023-11-25T09:58:19.002Z,98429.78
2023-11-25T10:00:46.911Z,98429.91
2023-11-25T10:03:17.358Z,98434.59
2023-11-25T10:05:50.302Z,98437.63
2023-11-25T10:08:17.865Z,98444.41
2023-11-25T10:11:09.460Z,98438.16
2023-11-25T10:13:40.595Z,98437.59
2023-11-25T10:16:10.663Z,98437.41
2023-11-25T10:18:39.987Z,98436.41
2023-11-25T10:21:09.328Z,98423.81
2023-11-25T10:23:37.471Z,98416.63
2023-11-25T10:26:05.633Z,98408.47
2023-11-25T10:28:35.456Z,98401.81
2023-11-25T10:31:06.444Z,98403.78
2023-11-25T10:33:35.573Z,98391.81
2023-11-25T10:36:04.379Z,98398.75
2023-11-25T10:38:32.818Z,98380.09
2023-11-25T10:41:06.902Z,98388.59
2023-11-25T10:43:35.078Z,98378.88
2023-11-25T10:46:12.212Z,98374.91
2023-11-25T10:48:41.013Z,98367.88
2023-11-25T10:51:09.864Z,98364.66
2023-11-25T10:53:42.323Z,98369.56
2023-11-25T10:56:10.118Z,98352.59
2023-11-25T10:58:38.656Z,98349.81
2023-11-25T11:01:06.542Z,98348.00
2023-11-25T11:04:15.159Z,98339.50
2023-11-25T11:06:54.508Z,98346.38
2023-11-25T11:09:28.947Z,98333.56
2023-11-25T11:12:09.170Z,98330.09
2023-11-25T11:14:48.524Z,98328.78
2023-11-25T11:18:08.251Z,98323.25
2023-11-25T11:20:47.671Z,98331.13
2023-11-25T11:23:20.482Z,98328.19
2023-11-25T11:26:28.577Z,98326.38
2023-11-25T11:29:19.533Z,98329.41
2023-11-25T11:32:22.651Z,98320.16
2023-11-25T11:34:50.435Z,98326.59
2023-11-25T11:37:18.553Z,98328.25
2023-11-25T11:40:08.052Z,98312.25
2023-11-25T11:42:35.747Z,98331.22
2023-11-25T11:45:27.472Z,98327.31
2023-11-25T11:47:58.455Z,98316.16
2023-11-25T11:50:34.722Z,98318.69
2023-11-25T11:53:05.475Z,98316.56
2023-11-25T11:55:41.936Z,98319.84
2023-11-25T11:58:12.839Z,98320.94
2023-11-25T12:01:03.336Z,98337.13
2023-11-25T12:03:34.751Z,98337.72
2023-11-25T12:06:02.523Z,98340.13
2023-11-25T12:08:31.815Z,98349.63
2023-11-25T12:10:59.745Z,98334.41
2023-11-25T12:13:32.504Z,98339.34
2023-11-25T12:16:01.765Z,98349.91
2023-11-25T12:18:35.002Z,98337.16
2023-11-25T12:21:09.860Z,98343.16
2023-11-25T12:23:45.352Z,98328.50
2023-11-25T12:26:26.730Z,98333.13
2023-11-25T12:28:54.465Z,98323.31
2023-11-25T12:31:22.046Z,98313.31
2023-11-25T12:33:49.921Z,98312.59
2023-11-25T12:36:17.578Z,98314.47
2023-11-25T12:38:44.858Z,98305.97
2023-11-25T12:41:16.584Z,98303.25
2023-11-25T12:44:12.774Z,98302.56
2023-11-25T12:46:43.449Z,98307.88
2023-11-25T12:49:24.919Z,98299.59
2023-11-25T12:51:53.816Z,98297.41
2023-11-25T12:54:21.821Z,98293.56
2023-11-25T12:56:51.583Z,98307.97
2023-11-25T12:59:29.474Z,98307.78
2023-11-25T13:02:10.349Z,98298.34
2023-11-25T13:04:51.442Z,98297.19
2023-11-25T13:07:35.506Z,98291.78
2023-11-25T13:10:08.336Z,98284.53
2023-11-25T13:12:37.821Z,98289.94
2023-11-25T13:15:05.979Z,98278.53
2023-11-25T13:17:33.315Z,98275.03
2023-11-25T13:20:00.719Z,98278.19
2023-11-25T13:22:28.094Z,98279.44
2023-11-25T13:24:55.317Z,98281.81
2023-11-25T13:27:23.506Z,98270.44
2023-11-25T13:29:51.273Z,98277.38
2023-11-25T13:32:18.738Z,98266.34
2023-11-25T13:34:46.036Z,98271.63
2023-11-25T13:37:13.518Z,98274.50
2023-11-25T13:39:40.908Z,98277.47
2023-11-25T13:42:08.983Z,98265.53
2023-11-25T13:44:36.837Z,98269.38
2023-11-25T13:47:04.589Z,98268.06
2023-11-25T13:49:34.975Z,98276.81
2023-11-25T13:52:02.911Z,98274.00
2023-11-25T13:54:37.785Z,98280.06
2023-11-25T13:57:05.939Z,98267.53
2023-11-25T13:59:33.193Z,98267.16
2023-11-25T14:02:03.425Z,98277.56
2023-11-25T14:04:33.254Z,98266.16
2023-11-25T14:07:00.747Z,98273.50
2023-11-25T14:09:28.325Z,98284.19
2023-11-25T14:11:55.764Z,98278.47
2023-11-25T14:14:23.498Z,98275.53
2023-11-25T14:16:52.484Z,98274.38
2023-11-25T14:19:20.157Z,98272.31
2023-11-25T14:21:47.300Z,98277.72
2023-11-25T14:24:14.539Z,98276.59
2023-11-25T14:26:41.701Z,98275.91
2023-11-25T14:29:09.381Z,98271.31
2023-11-25T14:31:36.892Z,98272.06
2023-11-25T14:34:04.402Z,98271.13
2023-11-25T14:36:31.813Z,98277.22
2023-11-25T14:38:59.070Z,98270.50
2023-11-25T14:41:27.135Z,98261.75
2023-11-25T14:43:54.950Z,98264.38
2023-11-25T14:46:23.327Z,98265.34
2023-11-25T14:48:51.490Z,98255.81
2023-11-25T14:51:19.024Z,98264.94
2023-11-25T14:53:46.668Z,98257.16
2023-11-25T14:56:14.413Z,98261.59
2023-11-25T14:58:42.783Z,98261.00
2023-11-25T15:01:10.212Z,98271.59
2023-11-25T15:03:40.387Z,98263.28
2023-11-25T15:06:08.954Z,98261.00
2023-11-25T15:08:39.244Z,98264.25
2023-11-25T15:11:08.230Z,98263.41
2023-11-25T15:13:35.917Z,98254.06
2023-11-25T15:16:03.589Z,98260.78
2023-11-25T15:18:31.270Z,98263.16
2023-11-25T15:21:02.513Z,98268.53
2023-11-25T15:23:29.888Z,98261.25
2023-11-25T15:25:57.038Z,98265.66
2023-11-25T15:28:25.312Z,98268.72
2023-11-25T15:30:52.928Z,98269.78
2023-11-25T15:33:20.214Z,98261.94
2023-11-25T15:35:47.457Z,98273.63
2023-11-25T15:38:14.896Z,98266.63
2023-11-25T15:40:42.262Z,98272.53
2023-11-25T15:43:10.146Z,98270.25
2023-11-25T15:45:37.529Z,98269.91
2023-11-25T15:48:05.224Z,98260.41
2023-11-25T15:50:33.130Z,98262.19
2023-11-25T15:53:00.811Z,98261.00
2023-11-25T15:55:28.721Z,98256.44
2023-11-25T15:57:56.559Z,98259.59
2023-11-25T16:00:24.694Z,98271.91
2023-11-25T16:02:54.993Z,98270.22
2023-11-25T16:05:25.082Z,98262.19
2023-11-25T16:07:52.653Z,98268.38
2023-11-25T16:10:19.951Z,98259.34
2023-11-25T16:12:47.551Z,98266.59
2023-11-25T16:15:16.048Z,98267.97
2023-11-25T16:17:43.970Z,98258.00
2023-11-25T16:20:16.710Z,98265.56
2023-11-25T16:22:44.429Z,98249.38
2023-11-25T16:25:12.001Z,98258.84
2023-11-25T16:27:39.287Z,98258.63
2023-11-25T16:30:09.594Z,98249.47
2023-11-25T16:32:37.315Z,98262.56
2023-11-25T16:35:06.036Z,98261.03
2023-11-25T16:37:34.275Z,98272.53
2023-11-25T16:40:01.602Z,98262.16
2023-11-25T16:42:29.052Z,98255.75
2023-11-25T16:44:56.740Z,98257.72
2023-11-25T16:47:25.876Z,98257.06
2023-11-25T16:49:53.850Z,98256.13
2023-11-25T16:52:21.227Z,98267.00
2023-11-25T16:54:48.744Z,98266.06
2023-11-25T16:57:16.410Z,98270.72
2023-11-25T16:59:44.517Z,98265.09
2023-11-25T17:02:12.661Z,98266.47
2023-11-25T17:04:40.255Z,98268.56
2023-11-25T17:07:10.084Z,98261.97
2023-11-25T17:09:39.628Z,98270.63
2023-11-25T17:12:08.182Z,98266.25
2023-11-25T17:14:36.940Z,98274.22
2023-11-25T17:17:09.890Z,98273.50
2023-11-25T17:19:37.489Z,98266.94
2023-11-25T17:22:05.285Z,98275.38
2023-11-25T17:24:32.457Z,98279.72
2023-11-25T17:26:59.591Z,98279.84
2023-11-25T17:29:26.982Z,98278.19
2023-11-25T17:31:55.345Z,98277.63
2023-11-25T17:34:23.582Z,98271.63
2023-11-25T17:36:51.635Z,98279.38
2023-11-25T17:39:19.136Z,98280.22
2023-11-25T17:41:46.801Z,98279.81
2023-11-25T17:44:14.333Z,98278.03
2023-11-25T17:46:43.563Z,98280.03
2023-11-25T17:49:12.338Z,98280.56
2023-11-25T17:51:45.153Z,98274.59
2023-11-25T17:54:12.553Z,98281.31
2023-11-25T17:56:40.148Z,98276.75
2023-11-25T17:59:07.898Z,98278.78
2023-11-25T18:01:35.908Z,98278.84
2023-11-25T18:04:04.471Z,98274.75
2023-11-25T18:06:32.190Z,98274.97
2023-11-25T18:08:59.842Z,98270.38
2023-11-25T18:11:27.545Z,98279.94
2023-11-25T18:13:55.067Z,98277.94
2023-11-25T18:16:26.168Z,98280.94
2023-11-25T18:18:54.074Z,98284.91
2023-11-25T18:21:22.136Z,98282.84
2023-11-25T18:23:49.606Z,98270.25
2023-11-25T18:26:17.241Z,98279.38
2023-11-25T18:28:45.122Z,98277.81
2023-11-25T18:31:38.369Z,98276.25
2023-11-25T18:34:06.236Z,98261.94
2023-11-25T18:36:33.663Z,98266.91
2023-11-25T18:39:00.922Z,98278.47
2023-11-25T18:41:28.518Z,98282.59
2023-11-25T18:43:55.827Z,98284.47
2023-11-25T18:46:25.824Z,98284.91
2023-11-25T18:48:53.505Z,98294.03
2023-11-25T18:51:21.192Z,98284.75
2023-11-25T18:53:48.608Z,98284.56
2023-11-25T18:56:16.495Z,98290.78
2023-11-25T18:58:45.316Z,98295.81
2023-11-25T19:01:14.500Z,98290.31
2023-11-25T19:03:42.550Z,98281.44
2023-11-25T19:06:09.781Z,98307.97
2023-11-25T19:08:39.172Z,98302.19
2023-11-25T19:11:06.564Z,98298.22
2023-11-25T19:13:34.154Z,98304.56
2023-11-25T19:16:03.820Z,98294.03
2023-11-25T19:18:31.370Z,98302.09
2023-11-25T19:20:58.808Z,98311.81
2023-11-25T19:23:26.005Z,98308.22
2023-11-25T19:25:53.750Z,98309.03
2023-11-25T19:28:25.096Z,98308.75
2023-11-25T19:30:53.317Z,98308.88
2023-11-25T19:33:20.888Z,98304.56
2023-11-25T19:35:48.302Z,98302.13
2023-11-25T19:38:16.291Z,98307.66
2023-11-25T19:40:43.712Z,98299.72
2023-11-25T19:43:11.133Z,98301.41
2023-11-25T19:45:38.794Z,98301.91
2023-11-25T19:48:06.779Z,98304.56
2023-11-25T19:50:34.256Z,98309.22
2023-11-25T19:53:01.809Z,98309.31
2023-11-25T19:55:29.751Z,98309.06
2023-11-25T19:57:57.366Z,98313.16
2023-11-25T20:00:25.067Z,98316.88
2023-11-25T20:02:52.495Z,98309.44
2023-11-25T20:05:19.830Z,98319.94
2023-11-25T20:07:52.091Z,98317.97
2023-11-25T20:10:20.751Z,98325.84
2023-11-25T20:12:48.814Z,98323.25
2023-11-25T20:15:16.334Z,98324.66
2023-11-25T20:17:44.145Z,98327.84
2023-11-25T20:20:12.398Z,98327.22
2023-11-25T20:22:39.927Z,98329.28
2023-11-25T20:25:07.810Z,98338.91
2023-11-25T20:27:35.630Z,98333.53
2023-11-25T20:30:02.907Z,98332.81
2023-11-25T20:32:31.904Z,98328.78
2023-11-25T20:34:59.439Z,98340.75
2023-11-25T20:37:27.217Z,98335.72
2023-11-25T20:39:54.460Z,98352.06
2023-11-25T20:42:21.989Z,98340.56
2023-11-25T20:44:49.603Z,98346.41
2023-11-25T20:47:17.296Z,98341.31
2023-11-25T20:49:47.257Z,98338.97
2023-11-25T20:52:15.401Z,98341.97
2023-11-25T20:54:47.132Z,98345.00
2023-11-25T20:57:15.410Z,98343.66
2023-11-25T20:59:43.212Z,98337.88
2023-11-25T21:02:10.584Z,98341.88
2023-11-25T21:04:37.999Z,98341.91
2023-11-25T21:07:05.741Z,98349.66
2023-11-25T21:09:33.427Z,98337.00
2023-11-25T21:12:00.958Z,98345.34
2023-11-25T21:14:30.415Z,98343.66
2023-11-25T21:16:59.611Z,98348.50
2023-11-25T21:19:27.448Z,98354.38
2023-11-25T21:21:54.660Z,98341.25
2023-11-25T21:24:21.790Z,98336.63
2023-11-25T21:26:48.982Z,98338.75
2023-11-25T21:29:16.329Z,98327.03
2023-11-25T21:31:47.590Z,98342.44
2023-11-25T21:34:15.356Z,98355.38
2023-11-25T21:36:43.753Z,98345.22
2023-11-25T21:39:11.836Z,98343.31
2023-11-25T21:41:39.555Z,98344.41
2023-11-25T21:44:07.542Z,98347.03
2023-11-25T21:46:34.762Z,98343.72
2023-11-25T21:49:02.076Z,98342.28
2023-11-25T21:51:29.400Z,98337.59
2023-11-25T21:53:56.914Z,98352.19
2023-11-25T21:56:25.603Z,98348.72
2023-11-25T21:58:53.169Z,98352.22
2023-11-25T22:01:20.617Z,98353.25
2023-11-25T22:03:48.137Z,98365.28
2023-11-25T22:06:28.601Z,98358.75
2023-11-25T22:08:57.673Z,98366.97
2023-11-25T22:11:26.696Z,98369.59
2023-11-25T22:13:54.447Z,98383.66
2023-11-25T22:16:27.268Z,98382.28
2023-11-25T22:18:55.031Z,98386.91
2023-11-25T22:21:22.489Z,98382.69
2023-11-25T22:23:50.984Z,98384.94
2023-11-25T22:26:34.791Z,98386.59
2023-11-25T22:29:05.695Z,98394.63
2023-11-25T22:31:34.423Z,98391.88
2023-11-25T22:34:02.359Z,98390.06
2023-11-25T22:36:32.365Z,98401.97
2023-11-25T22:38:59.660Z,98396.00
2023-11-25T22:41:27.057Z,98404.91
2023-11-25T22:43:55.237Z,98400.50
2023-11-25T22:46:24.667Z,98409.69
2023-11-25T22:48:53.185Z,98427.56
2023-11-25T22:51:24.987Z,98432.28
2023-11-25T22:53:53.047Z,98433.13
2023-11-25T22:56:20.941Z,98427.59
2023-11-25T22:58:48.926Z,98431.47
2023-11-25T23:01:20.771Z,98446.53
2023-11-25T23:03:55.244Z,98444.53
2023-11-25T23:06:24.503Z,98447.28
2023-11-25T23:08:53.822Z,98456.78
2023-11-25T23:11:26.481Z,98463.69
2023-11-25T23:13:54.106Z,98472.09
2023-11-25T23:16:27.200Z,98475.19
2023-11-25T23:18:54.501Z,98480.38
2023-11-25T23:21:22.754Z,98483.53
2023-11-25T23:23:50.380Z,98488.56
2023-11-25T23:26:17.897Z,98484.88
2023-11-25T23:28:45.930Z,98486.16
2023-11-25T23:31:18.423Z,98478.38
2023-11-25T23:33:45.947Z,98481.44
2023-11-25T23:36:13.274Z,98487.53
2023-11-25T23:38:40.706Z,98493.72
2023-11-25T23:41:07.998Z,98489.56
2023-11-25T23:43:35.710Z,98488.91
2023-11-25T23:46:03.261Z,98500.94
2023-11-25T23:48:31.546Z,98496.47
2023-11-25T23:50:59.037Z,98501.84
2023-11-25T23:53:26.665Z,98519.81
2023-11-25T23:55:54.575Z,98506.19
2023-11-25T23:58:22.661Z,98503.31
